createdAt,value
2018-12-12T00:01:58.431Z,1.40
2018-12-12T00:04:29.199Z,2.87
2018-12-12T00:06:58.111Z,1.70
2018-12-12T00:09:26.911Z,1.17
2018-12-12T00:11:55.733Z,1.57
2018-12-12T00:14:24.550Z,2.40
2018-12-12T00:16:53.415Z,1.67
2018-12-12T00:19:22.235Z,2.10
2018-12-12T00:21:51.055Z,1.60
2018-12-12T00:24:19.858Z,1.43
2018-12-12T00:26:48.657Z,2.93
2018-12-12T00:29:17.522Z,2.10
2018-12-12T00:31:46.344Z,1.63
2018-12-12T00:34:15.161Z,1.10
2018-12-12T00:36:44.320Z,2.50
2018-12-12T00:39:13.131Z,0.90
2018-12-12T00:41:41.945Z,3.53
2018-12-12T00:44:10.749Z,1.60
2018-12-12T00:46:41.722Z,1.47
2018-12-12T00:49:10.790Z,1.70
2018-12-12T00:51:39.883Z,1.60
2018-12-12T00:54:08.852Z,2.10
2018-12-12T00:56:37.642Z,2.13
2018-12-12T00:59:06.539Z,2.73
2018-12-12T01:01:35.366Z,1.33
2018-12-12T01:04:04.834Z,1.33
2018-12-12T01:06:33.633Z,2.63
2018-12-12T01:09:02.451Z,2.37
2018-12-12T01:12:36.912Z,3.07
2018-12-12T01:15:06.406Z,3.10
2018-12-12T01:17:35.276Z,1.43
2018-12-12T01:20:05.002Z,2.10
2018-12-12T01:22:33.885Z,2.43
2018-12-12T01:25:02.778Z,2.90
2018-12-12T01:27:31.791Z,2.17
2018-12-12T01:30:00.662Z,1.90
2018-12-12T01:32:30.131Z,2.87
2018-12-12T01:34:58.952Z,2.47
2018-12-12T01:37:27.740Z,1.53
2018-12-12T01:39:56.648Z,1.43
2018-12-12T01:42:25.479Z,2.83
2018-12-12T01:44:54.297Z,2.53
2018-12-12T01:47:23.122Z,3.73
2018-12-12T01:49:51.981Z,2.97
2018-12-12T01:52:20.786Z,2.00
2018-12-12T01:54:49.583Z,2.33
2018-12-12T01:57:19.020Z,3.90
2018-12-12T01:59:47.808Z,2.17
2018-12-12T02:02:16.629Z,5.30
2018-12-12T02:04:45.497Z,2.50
2018-12-12T02:07:14.329Z,3.07
2018-12-12T02:09:43.199Z,2.53
2018-12-12T02:12:12.052Z,3.00
2018-12-12T02:14:41.631Z,2.77
2018-12-12T02:17:10.445Z,3.10
2018-12-12T02:19:39.355Z,3.43
2018-12-12T02:22:08.173Z,5.20
2018-12-12T02:24:36.976Z,3.40
2018-12-12T02:27:05.765Z,2.93
2018-12-12T02:29:34.634Z,4.33
2018-12-12T02:32:03.542Z,3.37
2018-12-12T02:34:32.450Z,3.63
2018-12-12T02:37:01.251Z,3.63
2018-12-12T02:39:30.080Z,3.57
2018-12-12T02:41:59.007Z,4.27
2018-12-12T02:44:27.827Z,5.60
2018-12-12T02:46:56.634Z,3.77
2018-12-12T02:49:25.427Z,3.63
2018-12-12T02:51:55.321Z,2.60
2018-12-12T02:54:24.123Z,3.23
2018-12-12T02:56:52.921Z,3.37
2018-12-12T02:59:22.923Z,4.87
2018-12-12T03:01:53.497Z,2.57
2018-12-12T03:04:22.322Z,4.07
2018-12-12T03:06:51.143Z,5.70
2018-12-12T03:09:19.961Z,5.90
2018-12-12T03:11:48.765Z,5.13
2018-12-12T03:14:17.645Z,5.10
2018-12-12T03:16:46.461Z,5.40
2018-12-12T03:19:15.271Z,2.90
2018-12-12T03:21:44.083Z,3.37
2018-12-12T03:24:12.882Z,3.73
2018-12-12T03:26:41.738Z,2.90
2018-12-12T03:29:10.554Z,5.00
2018-12-12T03:31:39.377Z,5.50
2018-12-12T03:34:08.187Z,3.73
2018-12-12T03:36:37.054Z,3.27
2018-12-12T03:39:07.857Z,3.13
2018-12-12T03:41:36.731Z,4.70
2018-12-12T03:44:05.644Z,4.53
2018-12-12T03:46:34.490Z,3.72
2018-12-12T03:49:03.363Z,6.62
2018-12-12T03:51:32.174Z,4.90
2018-12-12T03:54:02.963Z,3.23
2018-12-12T03:56:31.760Z,4.03
2018-12-12T03:59:00.574Z,3.90
2018-12-12T04:01:29.453Z,5.07
2018-12-12T04:03:58.254Z,4.17
2018-12-12T04:06:27.040Z,3.07
2018-12-12T04:08:55.837Z,5.77
2018-12-12T04:11:24.616Z,3.80
2018-12-12T04:13:53.580Z,3.43
2018-12-12T04:16:23.374Z,3.30
2018-12-12T04:18:52.255Z,2.60
2018-12-12T04:21:23.022Z,3.07
2018-12-12T04:23:51.843Z,3.97
2018-12-12T04:26:20.801Z,2.80
2018-12-12T04:28:49.653Z,3.70
2018-12-12T04:31:22.256Z,2.73
2018-12-12T04:33:51.018Z,3.40
2018-12-12T04:36:19.898Z,4.30
2018-12-12T04:38:48.735Z,4.40
2018-12-12T04:41:18.163Z,4.60
2018-12-12T04:43:47.071Z,3.40
2018-12-12T04:46:15.925Z,1.77
2018-12-12T04:48:44.742Z,3.30
2018-12-12T04:51:13.567Z,3.50
2018-12-12T04:53:42.431Z,5.90
2018-12-12T04:56:11.237Z,2.87
2018-12-12T04:58:40.179Z,4.33
2018-12-12T05:01:09.259Z,1.97
2018-12-12T05:03:38.069Z,4.67
2018-12-12T05:06:06.930Z,3.40
2018-12-12T05:08:35.739Z,2.57
2018-12-12T05:11:04.686Z,3.93
2018-12-12T05:13:33.494Z,4.03
2018-12-12T05:16:02.311Z,5.83
2018-12-12T05:18:31.113Z,5.30
2018-12-12T05:21:00.073Z,4.77
2018-12-12T05:23:28.868Z,4.80
2018-12-12T05:25:57.667Z,5.67
2018-12-12T05:28:26.485Z,2.50
2018-12-12T05:30:55.324Z,4.20
2018-12-12T05:33:24.241Z,2.33
2018-12-12T05:35:54.234Z,7.13
2018-12-12T05:38:23.051Z,2.23
2018-12-12T05:40:51.942Z,3.97
2018-12-12T05:43:20.824Z,3.33
2018-12-12T05:45:49.765Z,7.03
2018-12-12T05:48:18.595Z,5.17
2018-12-12T05:50:47.462Z,3.53
2018-12-12T05:53:16.258Z,2.90
2018-12-12T05:55:45.137Z,3.67
2018-12-12T05:58:13.952Z,4.40
2018-12-12T06:00:43.698Z,3.03
2018-12-12T06:03:12.490Z,5.95
2018-12-12T06:05:41.328Z,6.30
2018-12-12T06:08:10.143Z,2.73
2018-12-12T06:10:39.054Z,6.03
2018-12-12T06:13:07.846Z,2.13
2018-12-12T06:15:36.647Z,3.70
2018-12-12T06:18:05.480Z,5.37
2018-12-12T06:20:34.311Z,6.13
2018-12-12T06:23:03.211Z,5.70
2018-12-12T06:25:32.070Z,6.20
2018-12-12T06:28:01.035Z,6.27
2018-12-12T06:30:29.847Z,8.20
2018-12-12T06:32:58.735Z,3.47
2018-12-12T06:35:27.517Z,4.23
2018-12-12T06:37:56.351Z,6.13
2018-12-12T06:40:25.157Z,4.67
2018-12-12T06:42:54.033Z,5.13
2018-12-12T06:45:22.856Z,4.17
2018-12-12T06:47:51.671Z,3.93
2018-12-12T06:50:20.571Z,3.17
2018-12-12T06:52:49.421Z,4.37
2018-12-12T06:55:18.342Z,6.27
2018-12-12T06:57:47.227Z,6.50
2018-12-12T07:00:16.024Z,4.50
2018-12-12T07:02:44.965Z,5.10
2018-12-12T07:05:13.754Z,4.07
2018-12-12T07:07:42.604Z,4.70
2018-12-12T07:10:11.403Z,6.58
2018-12-12T07:12:40.293Z,8.30
2018-12-12T07:15:09.261Z,6.30
2018-12-12T07:17:38.042Z,7.73
2018-12-12T07:20:07.054Z,8.10
2018-12-12T07:22:36.545Z,4.07
2018-12-12T07:25:05.545Z,4.57
2018-12-12T07:27:34.439Z,4.67
2018-12-12T07:30:03.415Z,4.73
2018-12-12T07:32:32.337Z,4.67
2018-12-12T07:35:01.133Z,4.20
2018-12-12T07:37:30.067Z,7.65
2018-12-12T07:39:58.885Z,3.40
2018-12-12T07:42:27.813Z,7.00
2018-12-12T07:45:17.484Z,5.47
2018-12-12T07:47:48.295Z,3.07
2018-12-12T07:50:22.865Z,4.93
2018-12-12T07:53:11.523Z,4.00
2018-12-12T07:55:40.399Z,3.97
2018-12-12T07:58:09.261Z,7.03
2018-12-12T08:00:38.173Z,5.70
2018-12-12T08:03:07.072Z,3.37
2018-12-12T08:05:36.013Z,3.53
2018-12-12T08:08:04.841Z,3.57
2018-12-12T08:10:34.125Z,5.60
2018-12-12T08:13:02.997Z,7.13
2018-12-12T08:15:31.781Z,6.30
2018-12-12T08:18:00.709Z,6.90
2018-12-12T08:20:29.582Z,6.03
2018-12-12T08:22:58.818Z,3.90
2018-12-12T08:25:27.718Z,4.63
2018-12-12T08:27:56.563Z,4.17
2018-12-12T08:30:25.433Z,2.70
2018-12-12T08:32:54.781Z,3.17
2018-12-12T08:35:23.674Z,5.73
2018-12-12T08:37:52.507Z,2.60
2018-12-12T08:40:21.380Z,2.73
2018-12-12T08:42:50.309Z,4.67
2018-12-12T08:45:19.124Z,4.50
2018-12-12T08:47:47.963Z,3.90
2018-12-12T08:50:16.801Z,3.53
2018-12-12T08:52:45.989Z,2.73
2018-12-12T08:55:17.641Z,5.23
2018-12-12T08:57:45.528Z,4.50
2018-12-12T09:00:14.480Z,5.43
2018-12-12T09:02:43.420Z,9.80
2018-12-12T09:05:12.222Z,3.57
2018-12-12T09:07:41.098Z,5.77
2018-12-12T09:10:11.286Z,3.37
2018-12-12T09:12:42.071Z,4.03
2018-12-12T09:15:10.941Z,6.10
2018-12-12T09:17:40.871Z,7.17
2018-12-12T09:20:10.941Z,7.80
2018-12-12T09:22:39.777Z,5.53
2018-12-12T09:25:08.698Z,6.00
2018-12-12T09:27:37.492Z,4.37
2018-12-12T09:30:08.479Z,4.50
2018-12-12T09:32:39.454Z,5.60
2018-12-12T09:35:26.840Z,7.73
2018-12-12T09:37:56.772Z,4.60
2018-12-12T09:40:25.630Z,7.63
2018-12-12T09:42:54.620Z,6.50
2018-12-12T09:45:23.419Z,5.97
2018-12-12T09:47:52.384Z,5.93
2018-12-12T09:50:21.556Z,5.20
2018-12-12T09:52:52.364Z,5.53
2018-12-12T09:55:23.179Z,8.03
2018-12-12T09:57:52.128Z,6.23
2018-12-12T10:00:20.938Z,4.17
2018-12-12T10:02:49.738Z,4.53
2018-12-12T10:05:18.606Z,5.23
2018-12-12T10:07:47.463Z,6.07
2018-12-12T10:10:16.303Z,7.27
2018-12-12T10:12:45.161Z,6.37
2018-12-12T10:15:14.140Z,4.67
2018-12-12T10:17:42.940Z,3.77
2018-12-12T10:20:11.758Z,4.60
2018-12-12T10:22:40.574Z,3.83
2018-12-12T10:25:09.554Z,7.30
2018-12-12T10:27:38.406Z,4.43
2018-12-12T10:30:07.280Z,7.00
2018-12-12T10:32:36.132Z,4.20
2018-12-12T10:35:05.294Z,4.20
2018-12-12T10:37:34.250Z,6.77
2018-12-12T10:40:03.186Z,4.63
2018-12-12T10:42:32.070Z,5.37
2018-12-12T10:45:00.928Z,5.20
2018-12-12T10:47:29.904Z,4.80
2018-12-12T10:49:58.870Z,4.83
2018-12-12T10:52:27.733Z,4.07
2018-12-12T10:54:56.608Z,5.17
2018-12-12T10:57:25.486Z,4.43
2018-12-12T10:59:54.279Z,2.30
2018-12-12T11:02:28.527Z,3.77
2018-12-12T11:04:57.405Z,3.40
2018-12-12T11:07:26.361Z,5.57
2018-12-12T11:09:55.167Z,4.43
2018-12-12T11:12:23.959Z,4.60
2018-12-12T11:14:52.836Z,3.93
2018-12-12T11:17:21.613Z,4.20
2018-12-12T11:19:50.433Z,3.52
2018-12-12T11:22:19.737Z,5.10
2018-12-12T11:24:49.245Z,4.85
2018-12-12T11:27:18.812Z,3.03
2018-12-12T11:29:48.187Z,3.23
2018-12-12T11:32:17.433Z,3.83
2018-12-12T11:34:46.219Z,6.03
2018-12-12T11:37:15.988Z,5.53
2018-12-12T11:39:44.863Z,3.60
2018-12-12T11:42:14.109Z,4.90
2018-12-12T11:44:43.329Z,6.20
2018-12-12T11:47:14.549Z,4.73
2018-12-12T11:49:43.717Z,2.20
2018-12-12T11:52:13.608Z,3.07
2018-12-12T11:54:43.029Z,3.33
2018-12-12T11:57:12.431Z,3.00
2018-12-12T11:59:41.758Z,3.00
2018-12-12T12:02:11.086Z,2.33
2018-12-12T12:04:39.977Z,3.27
2018-12-12T12:07:08.789Z,2.70
2018-12-12T12:09:37.697Z,2.40
2018-12-12T12:12:06.597Z,2.70
2018-12-12T12:14:37.757Z,2.60
2018-12-12T12:17:06.554Z,1.60
2018-12-12T12:19:36.300Z,2.30
2018-12-12T12:22:05.161Z,2.00
2018-12-12T12:24:33.993Z,1.90
2018-12-12T12:27:02.812Z,1.40
2018-12-12T12:29:31.649Z,1.50
2018-12-12T12:32:00.494Z,0.97
2018-12-12T12:34:29.325Z,1.10
2018-12-12T12:36:58.784Z,1.33
2018-12-12T12:39:28.517Z,2.20
2018-12-12T12:41:58.349Z,1.80
2018-12-12T12:44:27.772Z,1.53
2018-12-12T12:46:56.687Z,1.20
2018-12-12T12:49:25.515Z,1.77
2018-12-12T12:51:54.565Z,1.90
2018-12-12T12:54:23.431Z,2.13
2018-12-12T12:56:52.227Z,2.13
2018-12-12T12:59:21.274Z,2.07
2018-12-12T13:01:50.044Z,2.10
2018-12-12T13:04:18.854Z,1.43
2018-12-12T13:06:47.712Z,1.90
2018-12-12T13:09:16.500Z,2.00
2018-12-12T13:11:45.309Z,2.80
2018-12-12T13:14:14.265Z,1.30
2018-12-12T13:16:43.904Z,2.30
2018-12-12T13:19:12.714Z,1.73
2018-12-12T13:21:41.698Z,2.03
2018-12-12T13:24:10.496Z,2.45
2018-12-12T13:26:39.356Z,1.37
2018-12-12T13:29:08.150Z,1.83
2018-12-12T13:31:36.956Z,2.03
2018-12-12T13:34:05.825Z,2.10
2018-12-12T13:36:34.614Z,2.17
2018-12-12T13:39:05.549Z,0.70
2018-12-12T13:41:36.281Z,1.60
2018-12-12T13:44:05.196Z,3.23
2018-12-12T13:46:34.267Z,2.07
2018-12-12T13:49:03.167Z,1.67
2018-12-12T13:51:31.972Z,1.97
2018-12-12T13:54:00.776Z,2.50
2018-12-12T13:56:29.572Z,1.30
2018-12-12T13:58:58.359Z,2.07
2018-12-12T14:01:27.233Z,1.67
2018-12-12T14:03:56.069Z,1.90
2018-12-12T14:06:25.049Z,1.83
2018-12-12T14:08:53.883Z,1.90
2018-12-12T14:11:22.767Z,0.90
2018-12-12T14:13:51.579Z,1.60
2018-12-12T14:16:20.547Z,1.93
2018-12-12T14:18:49.411Z,1.13
2018-12-12T14:21:18.206Z,2.43
2018-12-12T14:23:47.097Z,1.53
2018-12-12T14:26:15.947Z,1.67
2018-12-12T14:28:44.750Z,2.00
2018-12-12T14:31:13.600Z,2.13
2018-12-12T14:33:42.399Z,1.43
2018-12-12T14:36:11.261Z,1.90
2018-12-12T14:38:40.025Z,1.47
2018-12-12T14:41:08.871Z,2.00
2018-12-12T14:43:37.713Z,2.00
2018-12-12T14:46:06.595Z,1.30
2018-12-12T14:48:35.424Z,1.77
2018-12-12T14:51:04.307Z,2.00
2018-12-12T14:53:33.161Z,1.40
2018-12-12T14:56:02.005Z,1.50
2018-12-12T14:58:30.967Z,2.23
2018-12-12T15:00:59.941Z,2.37
2018-12-12T15:03:28.844Z,1.20
2018-12-12T15:05:57.660Z,1.90
2018-12-12T15:08:26.654Z,1.77
2018-12-12T15:10:55.478Z,2.00
2018-12-12T15:13:24.302Z,0.80
2018-12-12T15:15:53.165Z,1.63
2018-12-12T15:18:21.973Z,2.37
2018-12-12T15:20:50.782Z,2.10
2018-12-12T15:23:19.684Z,0.90
2018-12-12T15:25:48.518Z,1.00
2018-12-12T15:28:17.409Z,1.00
2018-12-12T15:30:46.248Z,1.80
2018-12-12T15:33:15.146Z,2.40
2018-12-12T15:35:43.966Z,1.43
2018-12-12T15:38:12.768Z,2.30
2018-12-12T15:40:41.612Z,2.27
2018-12-12T15:43:10.419Z,1.50
2018-12-12T15:45:39.300Z,1.90
2018-12-12T15:48:08.127Z,1.17
2018-12-12T15:50:37.002Z,1.20
2018-12-12T15:53:06.032Z,1.97
2018-12-12T15:55:34.784Z,1.63
2018-12-12T15:58:03.678Z,1.73
2018-12-12T16:00:33.290Z,1.20
2018-12-12T16:03:02.502Z,1.37
2018-12-12T16:05:31.395Z,1.43
2018-12-12T16:08:00.256Z,0.70
2018-12-12T16:10:29.127Z,1.30
2018-12-12T16:12:58.821Z,2.27
2018-12-12T16:15:27.760Z,1.80
2018-12-12T16:17:56.559Z,1.20
2018-12-12T16:20:25.427Z,1.40
2018-12-12T16:22:54.422Z,1.00
2018-12-12T16:25:24.313Z,1.47
2018-12-12T16:27:53.453Z,1.90
2018-12-12T16:30:22.362Z,3.13
2018-12-12T16:32:51.286Z,3.12
2018-12-12T16:35:20.185Z,2.40
2018-12-12T16:37:49.068Z,1.65
2018-12-12T16:40:17.918Z,2.57
2018-12-12T16:42:54.809Z,3.52
2018-12-12T16:45:42.857Z,2.70
2018-12-12T16:48:12.857Z,2.53
2018-12-12T16:50:41.683Z,3.67
2018-12-12T16:53:11.080Z,1.53
2018-12-12T16:55:39.993Z,0.70
2018-12-12T16:58:08.814Z,1.47
2018-12-12T17:00:37.625Z,2.20
2018-12-12T17:03:06.683Z,2.40
2018-12-12T17:05:35.605Z,2.70
2018-12-12T17:08:04.565Z,1.07
2018-12-12T17:10:33.335Z,1.30
2018-12-12T17:13:02.124Z,1.40
2018-12-12T17:15:30.993Z,1.67
2018-12-12T17:17:59.781Z,2.40
2018-12-12T17:20:28.673Z,1.90
2018-12-12T17:22:57.559Z,2.70
2018-12-12T17:25:26.387Z,1.63
2018-12-12T17:27:55.231Z,2.00
2018-12-12T17:30:24.135Z,2.50
2018-12-12T17:32:53.309Z,2.37
2018-12-12T17:35:22.145Z,1.13
2018-12-12T17:37:51.069Z,1.47
2018-12-12T17:40:19.901Z,2.50
2018-12-12T17:42:48.765Z,1.63
2018-12-12T17:45:17.624Z,1.97
2018-12-12T17:47:46.517Z,1.53
2018-12-12T17:50:15.327Z,1.60
2018-12-12T17:52:44.209Z,2.00
2018-12-12T17:55:13.099Z,3.00
2018-12-12T17:57:42.661Z,1.83
2018-12-12T18:00:11.871Z,1.47
2018-12-12T18:02:42.648Z,2.50
2018-12-12T18:05:17.022Z,2.55
2018-12-12T18:07:46.437Z,3.50
2018-12-12T18:10:15.358Z,2.77
2018-12-12T18:12:44.267Z,1.80
2018-12-12T18:15:15.043Z,3.07
2018-12-12T18:17:45.861Z,2.07
2018-12-12T18:20:16.061Z,1.60
2018-12-12T18:22:44.902Z,2.27
2018-12-12T18:25:15.676Z,0.97
2018-12-12T18:27:44.487Z,0.90
2018-12-12T18:30:13.300Z,2.23
2018-12-12T18:32:44.088Z,1.73
2018-12-12T18:35:30.712Z,1.50
2018-12-12T18:37:59.542Z,1.97
2018-12-12T18:40:28.354Z,0.90
2018-12-12T18:42:59.137Z,1.57
2018-12-12T18:45:28.011Z,0.77
2018-12-12T18:47:57.003Z,0.93
2018-12-12T18:50:27.806Z,1.27
2018-12-12T18:53:14.385Z,2.60
2018-12-12T18:55:43.340Z,1.80
2018-12-12T18:58:12.160Z,1.17
2018-12-12T19:00:40.958Z,1.90
2018-12-12T19:03:09.836Z,2.37
2018-12-12T19:05:38.763Z,4.83
2018-12-12T19:08:07.750Z,1.80
2018-12-12T19:10:36.712Z,3.17
2018-12-12T19:13:05.596Z,1.70
2018-12-12T19:15:34.409Z,1.10
2018-12-12T19:18:03.393Z,3.07
2018-12-12T19:20:32.350Z,3.10
2018-12-12T19:23:02.496Z,0.87
2018-12-12T19:25:31.372Z,1.37
2018-12-12T19:28:00.276Z,1.50
2018-12-12T19:30:29.340Z,1.93
2018-12-12T19:32:58.145Z,3.40
2018-12-12T19:35:26.950Z,1.73
2018-12-12T19:37:55.786Z,0.90
2018-12-12T19:40:24.588Z,1.47
2018-12-12T19:42:53.372Z,0.93
2018-12-12T19:45:23.655Z,1.00
2018-12-12T19:47:53.899Z,1.57
2018-12-12T19:50:22.738Z,1.00
2018-12-12T19:52:51.618Z,1.77
2018-12-12T19:55:20.437Z,2.73
2018-12-12T19:57:49.261Z,1.37
2018-12-12T20:00:18.252Z,1.27
2018-12-12T20:02:47.052Z,2.00
2018-12-12T20:05:15.838Z,0.70
2018-12-12T20:07:44.792Z,2.30
2018-12-12T20:10:13.585Z,1.90
2018-12-12T20:12:42.481Z,1.37
2018-12-12T20:15:15.595Z,1.93
2018-12-12T20:17:44.479Z,1.37
2018-12-12T20:20:13.463Z,0.93
2018-12-12T20:22:42.341Z,1.30
2018-12-12T20:25:11.203Z,2.30
2018-12-12T20:27:40.036Z,1.90
2018-12-12T20:30:09.437Z,1.40
2018-12-12T20:32:38.687Z,2.37
2018-12-12T20:35:07.569Z,2.63
2018-12-12T20:37:36.525Z,3.33
2018-12-12T20:40:06.617Z,1.43
2018-12-12T20:42:35.483Z,1.13
2018-12-12T20:45:04.833Z,2.00
2018-12-12T20:47:33.671Z,1.00
2018-12-12T20:50:02.605Z,1.43
2018-12-12T20:52:31.553Z,2.73
2018-12-12T20:55:00.315Z,2.20
2018-12-12T20:57:29.138Z,2.93
2018-12-12T20:59:59.413Z,2.20
2018-12-12T21:02:28.302Z,1.67
2018-12-12T21:04:57.230Z,1.37
2018-12-12T21:07:26.019Z,1.30
2018-12-12T21:09:54.906Z,2.07
2018-12-12T21:12:23.783Z,2.00
2018-12-12T21:14:53.172Z,0.93
2018-12-12T21:17:22.029Z,2.20
2018-12-12T21:19:50.957Z,1.33
2018-12-12T21:22:19.849Z,1.17
2018-12-12T21:24:50.416Z,1.10
2018-12-12T21:27:19.269Z,0.97
2018-12-12T21:29:48.084Z,1.83
2018-12-12T21:32:16.907Z,1.63
2018-12-12T21:34:45.711Z,1.70
2018-12-12T21:37:14.541Z,1.10
2018-12-12T21:39:43.468Z,1.87
2018-12-12T21:42:12.261Z,0.90
2018-12-12T21:44:41.060Z,1.33
2018-12-12T21:47:09.888Z,0.87
2018-12-12T21:49:38.814Z,2.27
2018-12-12T21:52:07.688Z,2.00
2018-12-12T21:54:36.601Z,2.20
2018-12-12T21:57:05.425Z,1.27
2018-12-12T21:59:34.279Z,2.30
2018-12-12T22:02:03.108Z,1.60
2018-12-12T22:04:37.267Z,2.83
2018-12-12T22:07:03.743Z,2.07
2018-12-12T22:09:32.669Z,1.10
2018-12-12T22:12:01.483Z,2.70
2018-12-12T22:14:30.286Z,3.00
2018-12-12T22:16:59.092Z,1.93
2018-12-12T22:19:27.917Z,2.80
2018-12-12T22:21:56.726Z,1.10
2018-12-12T22:24:25.527Z,2.33
2018-12-12T22:26:54.343Z,1.20
2018-12-12T22:29:23.213Z,1.70
2018-12-12T22:31:52.073Z,1.00
2018-12-12T22:34:20.874Z,1.57
2018-12-12T22:36:49.759Z,2.20
2018-12-12T22:39:18.557Z,1.93
2018-12-12T22:41:47.346Z,1.43
2018-12-12T22:44:16.162Z,2.10
2018-12-12T22:46:44.952Z,1.70
2018-12-12T22:49:14.002Z,2.13
2018-12-12T22:51:42.805Z,3.23
2018-12-12T22:54:11.610Z,2.47
2018-12-12T22:56:40.434Z,1.03
2018-12-12T22:59:09.248Z,1.77
2018-12-12T23:01:38.131Z,1.53
2018-12-12T23:04:08.164Z,1.37
2018-12-12T23:06:36.977Z,2.17
2018-12-12T23:09:08.641Z,1.97
2018-12-12T23:11:39.449Z,3.57
2018-12-12T23:14:08.371Z,2.67
2018-12-12T23:16:37.260Z,1.63
2018-12-12T23:19:06.047Z,2.73
2018-12-12T23:21:34.938Z,0.87
2018-12-12T23:24:03.835Z,1.47
2018-12-12T23:26:32.932Z,0.77
2018-12-12T23:29:01.735Z,2.07
2018-12-12T23:31:30.600Z,1.90
2018-12-12T23:33:59.475Z,1.73
2018-12-12T23:36:28.302Z,1.67
2018-12-12T23:38:57.179Z,1.37
2018-12-12T23:41:25.993Z,2.63
2018-12-12T23:43:54.789Z,3.00
2018-12-12T23:46:23.579Z,2.47
2018-12-12T23:48:52.525Z,1.87
2018-12-12T23:51:21.322Z,1.93
2018-12-12T23:53:50.149Z,1.60
2018-12-12T23:56:19.009Z,1.67
2018-12-12T23:58:47.843Z,0.63
